sensor_id;sensor_type;location;lat;lon;timestamp;P1;P2;P0
72023;PMS5003;59889;50.700;5.440;2022-12-07T00:02:22;3;3;
72023;PMS5003;59889;50.700;5.440;2022-12-07T00:04:48;5;5;
72023;PMS5003;59889;50.700;5.440;2022-12-07T00:07:12;5;5;
72023;PMS5003;59889;50.700;5.440;2022-12-07T00:09:37;4;4;
72023;PMS5003;59889;50.700;5.440;2022-12-07T00:12:02;4;4;
72023;PMS5003;59889;50.700;5.440;2022-12-07T00:14:27;4;4;
72023;PMS5003;59889;50.700;5.440;2022-12-07T00:16:53;5;4;
72023;PMS5003;59889;50.700;5.440;2022-12-07T00:19:17;4;4;
72023;PMS5003;59889;50.700;5.440;2022-12-07T00:21:42;3;3;
72023;PMS5003;59889;50.700;5.440;2022-12-07T00:24:07;5;5;
72023;PMS5003;59889;50.700;5.440;2022-12-07T00:26:33;5;5;
72023;PMS5003;59889;50.700;5.440;2022-12-07T00:28:58;3;3;
72023;PMS5003;59889;50.700;5.440;2022-12-07T00:31:24;6;5;
72023;PMS5003;59889;50.700;5.440;2022-12-07T00:33:49;5;5;
72023;PMS5003;59889;50.700;5.440;2022-12-07T00:36:14;4;4;
72023;PMS5003;59889;50.700;5.440;2022-12-07T00:38:38;5;5;
72023;PMS5003;59889;50.700;5.440;2022-12-07T00:41:03;4;4;
72023;PMS5003;59889;50.700;5.440;2022-12-07T00:43:28;5;5;
72023;PMS5003;59889;50.700;5.440;2022-12-07T00:45:53;5;5;
72023;PMS5003;59889;50.700;5.440;2022-12-07T00:48:18;3;3;
72023;PMS5003;59889;50.700;5.440;2022-12-07T00:50:43;4;4;
72023;PMS5003;59889;50.700;5.440;2022-12-07T00:53:08;4;4;
72023;PMS5003;59889;50.700;5.440;2022-12-07T00:55:34;6;4;
72023;PMS5003;59889;50.700;5.440;2022-12-07T00:57:59;3;3;
72023;PMS5003;59889;50.700;5.440;2022-12-07T01:00:24;6;6;
72023;PMS5003;59889;50.700;5.440;2022-12-07T01:02:49;4;4;
72023;PMS5003;59889;50.700;5.440;2022-12-07T01:05:14;4;4;
72023;PMS5003;59889;50.700;5.440;2022-12-07T01:07:39;4;3;
72023;PMS5003;59889;50.700;5.440;2022-12-07T01:10:04;5;4;
72023;PMS5003;59889;50.700;5.440;2022-12-07T01:12:29;4;3;
72023;PMS5003;59889;50.700;5.440;2022-12-07T01:14:54;3;3;
72023;PMS5003;59889;50.700;5.440;2022-12-07T01:17:19;4;3;
72023;PMS5003;59889;50.700;5.440;2022-12-07T01:19:44;5;3;
72023;PMS5003;59889;50.700;5.440;2022-12-07T01:22:09;5;5;
72023;PMS5003;59889;50.700;5.440;2022-12-07T01:24:34;2;2;
72023;PMS5003;59889;50.700;5.440;2022-12-07T01:27:00;5;5;
72023;PMS5003;59889;50.700;5.440;2022-12-07T01:29:26;4;3;
72023;PMS5003;59889;50.700;5.440;2022-12-07T01:31:50;5;5;
72023;PMS5003;59889;50.700;5.440;2022-12-07T01:34:15;4;4;
72023;PMS5003;59889;50.700;5.440;2022-12-07T01:36:40;5;4;
72023;PMS5003;59889;50.700;5.440;2022-12-07T01:39:06;4;4;
72023;PMS5003;59889;50.700;5.440;2022-12-07T01:41:31;6;5;
72023;PMS5003;59889;50.700;5.440;2022-12-07T01:46:20;3;3;
72023;PMS5003;59889;50.700;5.440;2022-12-07T01:48:45;5;5;
72023;PMS5003;59889;50.700;5.440;2022-12-07T01:51:11;5;5;
72023;PMS5003;59889;50.700;5.440;2022-12-07T01:53:36;4;4;
72023;PMS5003;59889;50.700;5.440;2022-12-07T01:56:01;4;4;
72023;PMS5003;59889;50.700;5.440;2022-12-07T01:58:26;5;5;
72023;PMS5003;59889;50.700;5.440;2022-12-07T02:00:51;5;5;
72023;PMS5003;59889;50.700;5.440;2022-12-07T02:03:17;5;4;
72023;PMS5003;59889;50.700;5.440;2022-12-07T02:05:41;3;3;
72023;PMS5003;59889;50.700;5.440;2022-12-07T02:08:06;6;5;
72023;PMS5003;59889;50.700;5.440;2022-12-07T02:10:31;4;4;
72023;PMS5003;59889;50.700;5.440;2022-12-07T02:12:57;5;5;
72023;PMS5003;59889;50.700;5.440;2022-12-07T02:15:22;5;4;
72023;PMS5003;59889;50.700;5.440;2022-12-07T02:17:48;5;4;
72023;PMS5003;59889;50.700;5.440;2022-12-07T02:20:16;5;5;
72023;PMS5003;59889;50.700;5.440;2022-12-07T02:22:46;3;3;
72023;PMS5003;59889;50.700;5.440;2022-12-07T02:25:04;5;4;
72023;PMS5003;59889;50.700;5.440;2022-12-07T02:27:29;5;5;
72023;PMS5003;59889;50.700;5.440;2022-12-07T02:29:54;5;5;
72023;PMS5003;59889;50.700;5.440;2022-12-07T02:32:18;4;4;
72023;PMS5003;59889;50.700;5.440;2022-12-07T02:34:44;5;5;
72023;PMS5003;59889;50.700;5.440;2022-12-07T02:37:09;3;3;
72023;PMS5003;59889;50.700;5.440;2022-12-07T02:39:34;4;3;
72023;PMS5003;59889;50.700;5.440;2022-12-07T02:41:58;5;5;
72023;PMS5003;59889;50.700;5.440;2022-12-07T02:44:23;4;3;
72023;PMS5003;59889;50.700;5.440;2022-12-07T02:46:48;4;4;
72023;PMS5003;59889;50.700;5.440;2022-12-07T02:49:13;5;5;
72023;PMS5003;59889;50.700;5.440;2022-12-07T02:51:38;5;5;
72023;PMS5003;59889;50.700;5.440;2022-12-07T02:54:07;4;4;
72023;PMS5003;59889;50.700;5.440;2022-12-07T02:56:30;4;4;
72023;PMS5003;59889;50.700;5.440;2022-12-07T02:58:55;3;3;
72023;PMS5003;59889;50.700;5.440;2022-12-07T03:01:21;5;5;
72023;PMS5003;59889;50.700;5.440;2022-12-07T03:03:44;5;3;
72023;PMS5003;59889;50.700;5.440;2022-12-07T03:06:10;5;5;
72023;PMS5003;59889;50.700;5.440;2022-12-07T03:08:39;3;3;
72023;PMS5003;59889;50.700;5.440;2022-12-07T03:10:59;6;4;
72023;PMS5003;59889;50.700;5.440;2022-12-07T03:13:24;5;5;
72023;PMS5003;59889;50.700;5.440;2022-12-07T03:15:49;5;5;
72023;PMS5003;59889;50.700;5.440;2022-12-07T03:18:15;5;5;
72023;PMS5003;59889;50.700;5.440;2022-12-07T03:20:39;5;4;
72023;PMS5003;59889;50.700;5.440;2022-12-07T03:23:05;4;4;
72023;PMS5003;59889;50.700;5.440;2022-12-07T03:25:29;4;4;
72023;PMS5003;59889;50.700;5.440;2022-12-07T03:27:55;7;5;
72023;PMS5003;59889;50.700;5.440;2022-12-07T03:30:20;4;4;
72023;PMS5003;59889;50.700;5.440;2022-12-07T03:32:45;4;4;
72023;PMS5003;59889;50.700;5.440;2022-12-07T03:35:11;5;4;
72023;PMS5003;59889;50.700;5.440;2022-12-07T03:37:36;3;3;
72023;PMS5003;59889;50.700;5.440;2022-12-07T03:40:02;5;4;
72023;PMS5003;59889;50.700;5.440;2022-12-07T03:42:26;5;4;
72023;PMS5003;59889;50.700;5.440;2022-12-07T03:44:50;5;5;
72023;PMS5003;59889;50.700;5.440;2022-12-07T03:47:16;5;4;
72023;PMS5003;59889;50.700;5.440;2022-12-07T03:49:41;5;5;
72023;PMS5003;59889;50.700;5.440;2022-12-07T03:52:07;4;4;
72023;PMS5003;59889;50.700;5.440;2022-12-07T03:54:31;5;5;
72023;PMS5003;59889;50.700;5.440;2022-12-07T03:56:55;6;5;
72023;PMS5003;59889;50.700;5.440;2022-12-07T03:59:21;6;6;
72023;PMS5003;59889;50.700;5.440;2022-12-07T04:01:51;6;5;
72023;PMS5003;59889;50.700;5.440;2022-12-07T04:04:11;4;3;
72023;PMS5003;59889;50.700;5.440;2022-12-07T04:06:36;5;5;
72023;PMS5003;59889;50.700;5.440;2022-12-07T04:09:01;6;6;
72023;PMS5003;59889;50.700;5.440;2022-12-07T04:11:26;5;5;
72023;PMS5003;59889;50.700;5.440;2022-12-07T04:13:51;4;4;
72023;PMS5003;59889;50.700;5.440;2022-12-07T04:16:16;6;4;
72023;PMS5003;59889;50.700;5.440;2022-12-07T04:18:41;5;4;
72023;PMS5003;59889;50.700;5.440;2022-12-07T04:21:06;7;7;
72023;PMS5003;59889;50.700;5.440;2022-12-07T04:23:32;4;4;
72023;PMS5003;59889;50.700;5.440;2022-12-07T04:25:57;6;6;
72023;PMS5003;59889;50.700;5.440;2022-12-07T04:28:22;5;4;
72023;PMS5003;59889;50.700;5.440;2022-12-07T04:30:47;5;5;
72023;PMS5003;59889;50.700;5.440;2022-12-07T04:33:12;6;6;
72023;PMS5003;59889;50.700;5.440;2022-12-07T04:35:37;4;4;
72023;PMS5003;59889;50.700;5.440;2022-12-07T04:38:02;5;5;
72023;PMS5003;59889;50.700;5.440;2022-12-07T04:40:27;4;4;
72023;PMS5003;59889;50.700;5.440;2022-12-07T04:42:52;5;5;
72023;PMS5003;59889;50.700;5.440;2022-12-07T04:45:17;5;5;
72023;PMS5003;59889;50.700;5.440;2022-12-07T04:47:43;6;5;
72023;PMS5003;59889;50.700;5.440;2022-12-07T04:50:09;4;4;
72023;PMS5003;59889;50.700;5.440;2022-12-07T04:52:33;5;5;
72023;PMS5003;59889;50.700;5.440;2022-12-07T04:54:58;3;3;
72023;PMS5003;59889;50.700;5.440;2022-12-07T04:57:23;6;5;
72023;PMS5003;59889;50.700;5.440;2022-12-07T04:59:48;5;4;
72023;PMS5003;59889;50.700;5.440;2022-12-07T05:02:13;5;5;
72023;PMS5003;59889;50.700;5.440;2022-12-07T05:04:38;3;3;
72023;PMS5003;59889;50.700;5.440;2022-12-07T05:07:03;6;5;
72023;PMS5003;59889;50.700;5.440;2022-12-07T05:09:28;6;4;
72023;PMS5003;59889;50.700;5.440;2022-12-07T05:11:53;5;5;
72023;PMS5003;59889;50.700;5.440;2022-12-07T05:14:19;5;5;
72023;PMS5003;59889;50.700;5.440;2022-12-07T05:16:44;5;5;
72023;PMS5003;59889;50.700;5.440;2022-12-07T05:19:09;5;5;
72023;PMS5003;59889;50.700;5.440;2022-12-07T05:21:34;4;4;
72023;PMS5003;59889;50.700;5.440;2022-12-07T05:23:59;5;5;
72023;PMS5003;59889;50.700;5.440;2022-12-07T05:26:24;4;4;
72023;PMS5003;59889;50.700;5.440;2022-12-07T05:28:50;5;5;
72023;PMS5003;59889;50.700;5.440;2022-12-07T05:31:14;5;4;
72023;PMS5003;59889;50.700;5.440;2022-12-07T05:33:39;7;6;
72023;PMS5003;59889;50.700;5.440;2022-12-07T05:36:05;4;4;
72023;PMS5003;59889;50.700;5.440;2022-12-07T05:38:30;5;5;
72023;PMS5003;59889;50.700;5.440;2022-12-07T05:40:55;5;4;
72023;PMS5003;59889;50.700;5.440;2022-12-07T05:43:20;5;5;
72023;PMS5003;59889;50.700;5.440;2022-12-07T05:45:45;5;5;
72023;PMS5003;59889;50.700;5.440;2022-12-07T05:48:10;6;6;
72023;PMS5003;59889;50.700;5.440;2022-12-07T05:50:35;7;6;
72023;PMS5003;59889;50.700;5.440;2022-12-07T05:53:00;4;4;
72023;PMS5003;59889;50.700;5.440;2022-12-07T05:55:25;10;9;
72023;PMS5003;59889;50.700;5.440;2022-12-07T05:57:50;12;12;
72023;PMS5003;59889;50.700;5.440;2022-12-07T06:00:16;12;12;
72023;PMS5003;59889;50.700;5.440;2022-12-07T06:02:42;16;15;
72023;PMS5003;59889;50.700;5.440;2022-12-07T06:05:07;12;12;
72023;PMS5003;59889;50.700;5.440;2022-12-07T06:07:32;16;15;
72023;PMS5003;59889;50.700;5.440;2022-12-07T06:09:58;15;14;
72023;PMS5003;59889;50.700;5.440;2022-12-07T06:12:23;15;14;
72023;PMS5003;59889;50.700;5.440;2022-12-07T06:14:48;15;15;
72023;PMS5003;59889;50.700;5.440;2022-12-07T06:17:14;18;17;
72023;PMS5003;59889;50.700;5.440;2022-12-07T06:19:38;14;14;
72023;PMS5003;59889;50.700;5.440;2022-12-07T06:22:04;18;17;
72023;PMS5003;59889;50.700;5.440;2022-12-07T06:24:29;17;17;
72023;PMS5003;59889;50.700;5.440;2022-12-07T06:26:54;16;15;
72023;PMS5003;59889;50.700;5.440;2022-12-07T06:29:20;16;15;
72023;PMS5003;59889;50.700;5.440;2022-12-07T06:31:45;18;17;
72023;PMS5003;59889;50.700;5.440;2022-12-07T06:34:11;16;16;
72023;PMS5003;59889;50.700;5.440;2022-12-07T06:36:36;17;15;
72023;PMS5003;59889;50.700;5.440;2022-12-07T06:39:02;17;15;
72023;PMS5003;59889;50.700;5.440;2022-12-07T06:41:27;15;15;
72023;PMS5003;59889;50.700;5.440;2022-12-07T06:43:52;17;16;
72023;PMS5003;59889;50.700;5.440;2022-12-07T06:46:17;19;17;
72023;PMS5003;59889;50.700;5.440;2022-12-07T06:48:43;17;16;
72023;PMS5003;59889;50.700;5.440;2022-12-07T06:51:08;19;17;
72023;PMS5003;59889;50.700;5.440;2022-12-07T06:53:33;21;20;
72023;PMS5003;59889;50.700;5.440;2022-12-07T06:55:58;18;16;
72023;PMS5003;59889;50.700;5.440;2022-12-07T06:58:23;16;15;
72023;PMS5003;59889;50.700;5.440;2022-12-07T07:00:49;19;17;
72023;PMS5003;59889;50.700;5.440;2022-12-07T07:03:13;17;16;
72023;PMS5003;59889;50.700;5.440;2022-12-07T07:05:39;20;17;
72023;PMS5003;59889;50.700;5.440;2022-12-07T07:08:04;16;16;
72023;PMS5003;59889;50.700;5.440;2022-12-07T07:10:29;18;16;
72023;PMS5003;59889;50.700;5.440;2022-12-07T07:12:55;17;16;
72023;PMS5003;59889;50.700;5.440;2022-12-07T07:15:20;20;15;
72023;PMS5003;59889;50.700;5.440;2022-12-07T07:17:45;14;14;
72023;PMS5003;59889;50.700;5.440;2022-12-07T07:20:11;13;12;
72023;PMS5003;59889;50.700;5.440;2022-12-07T07:22:36;15;15;
72023;PMS5003;59889;50.700;5.440;2022-12-07T07:25:01;14;13;
72023;PMS5003;59889;50.700;5.440;2022-12-07T07:27:26;16;15;
72023;PMS5003;59889;50.700;5.440;2022-12-07T07:29:52;14;13;
72023;PMS5003;59889;50.700;5.440;2022-12-07T07:32:17;14;13;
72023;PMS5003;59889;50.700;5.440;2022-12-07T07:34:42;12;12;
72023;PMS5003;59889;50.700;5.440;2022-12-07T07:37:08;12;12;
72023;PMS5003;59889;50.700;5.440;2022-12-07T07:39:33;12;12;
72023;PMS5003;59889;50.700;5.440;2022-12-07T07:41:59;13;13;
72023;PMS5003;59889;50.700;5.440;2022-12-07T07:44:26;13;13;
72023;PMS5003;59889;50.700;5.440;2022-12-07T07:46:50;10;10;
72023;PMS5003;59889;50.700;5.440;2022-12-07T07:49:15;12;11;
72023;PMS5003;59889;50.700;5.440;2022-12-07T07:51:41;10;10;
72023;PMS5003;59889;50.700;5.440;2022-12-07T07:54:06;12;11;
72023;PMS5003;59889;50.700;5.440;2022-12-07T07:56:31;16;12;
72023;PMS5003;59889;50.700;5.440;2022-12-07T07:58:56;11;11;
72023;PMS5003;59889;50.700;5.440;2022-12-07T08:01:21;13;12;
72023;PMS5003;59889;50.700;5.440;2022-12-07T08:03:46;11;11;
72023;PMS5003;59889;50.700;5.440;2022-12-07T08:06:11;11;11;
72023;PMS5003;59889;50.700;5.440;2022-12-07T08:08:36;13;11;
72023;PMS5003;59889;50.700;5.440;2022-12-07T08:11:04;10;9;
72023;PMS5003;59889;50.700;5.440;2022-12-07T08:13:27;12;12;
72023;PMS5003;59889;50.700;5.440;2022-12-07T08:15:52;11;10;
72023;PMS5003;59889;50.700;5.440;2022-12-07T08:18:17;11;10;
72023;PMS5003;59889;50.700;5.440;2022-12-07T08:20:43;11;8;
72023;PMS5003;59889;50.700;5.440;2022-12-07T08:23:08;12;11;
72023;PMS5003;59889;50.700;5.440;2022-12-07T08:25:33;10;10;
72023;PMS5003;59889;50.700;5.440;2022-12-07T08:27:58;11;10;
72023;PMS5003;59889;50.700;5.440;2022-12-07T08:30:23;11;11;
72023;PMS5003;59889;50.700;5.440;2022-12-07T08:32:48;10;10;
72023;PMS5003;59889;50.700;5.440;2022-12-07T08:35:13;15;10;
72023;PMS5003;59889;50.700;5.440;2022-12-07T08:37:39;11;9;
72023;PMS5003;59889;50.700;5.440;2022-12-07T08:40:04;10;9;
72023;PMS5003;59889;50.700;5.440;2022-12-07T08:42:29;12;11;
72023;PMS5003;59889;50.700;5.440;2022-12-07T08:44:54;11;9;
72023;PMS5003;59889;50.700;5.440;2022-12-07T08:47:19;14;12;
72023;PMS5003;59889;50.700;5.440;2022-12-07T08:49:44;8;7;
72023;PMS5003;59889;50.700;5.440;2022-12-07T08:52:09;13;11;
72023;PMS5003;59889;50.700;5.440;2022-12-07T08:54:35;11;9;
72023;PMS5003;59889;50.700;5.440;2022-12-07T08:57:00;13;12;
72023;PMS5003;59889;50.700;5.440;2022-12-07T08:59:26;10;9;
72023;PMS5003;59889;50.700;5.440;2022-12-07T09:01:50;9;8;
72023;PMS5003;59889;50.700;5.440;2022-12-07T09:04:16;10;9;
72023;PMS5003;59889;50.700;5.440;2022-12-07T09:06:41;11;11;
72023;PMS5003;59889;50.700;5.440;2022-12-07T09:09:06;12;11;
72023;PMS5003;59889;50.700;5.440;2022-12-07T09:11:31;11;10;
72023;PMS5003;59889;50.700;5.440;2022-12-07T09:13:56;13;11;
72023;PMS5003;59889;50.700;5.440;2022-12-07T09:16:21;8;8;
72023;PMS5003;59889;50.700;5.440;2022-12-07T09:18:46;14;10;
72023;PMS5003;59889;50.700;5.440;2022-12-07T09:21:11;13;11;
72023;PMS5003;59889;50.700;5.440;2022-12-07T09:23:36;10;8;
72023;PMS5003;59889;50.700;5.440;2022-12-07T09:26:02;13;13;
72023;PMS5003;59889;50.700;5.440;2022-12-07T09:28:27;9;9;
72023;PMS5003;59889;50.700;5.440;2022-12-07T09:30:52;9;9;
72023;PMS5003;59889;50.700;5.440;2022-12-07T09:33:17;12;11;
72023;PMS5003;59889;50.700;5.440;2022-12-07T09:35:44;8;8;
72023;PMS5003;59889;50.700;5.440;2022-12-07T09:38:07;10;9;
72023;PMS5003;59889;50.700;5.440;2022-12-07T09:40:32;10;10;
72023;PMS5003;59889;50.700;5.440;2022-12-07T09:42:58;10;9;
72023;PMS5003;59889;50.700;5.440;2022-12-07T09:45:24;10;10;
72023;PMS5003;59889;50.700;5.440;2022-12-07T09:47:48;11;9;
72023;PMS5003;59889;50.700;5.440;2022-12-07T09:50:14;8;7;
72023;PMS5003;59889;50.700;5.440;2022-12-07T09:52:38;12;12;
72023;PMS5003;59889;50.700;5.440;2022-12-07T09:55:08;11;10;
72023;PMS5003;59889;50.700;5.440;2022-12-07T09:57:29;10;8;
72023;PMS5003;59889;50.700;5.440;2022-12-07T09:59:54;8;8;
72023;PMS5003;59889;50.700;5.440;2022-12-07T10:02:24;11;10;
72023;PMS5003;59889;50.700;5.440;2022-12-07T10:04:44;11;11;
72023;PMS5003;59889;50.700;5.440;2022-12-07T10:07:09;8;7;
72023;PMS5003;59889;50.700;5.440;2022-12-07T10:09:34;12;9;
72023;PMS5003;59889;50.700;5.440;2022-12-07T10:12:01;14;13;
72023;PMS5003;59889;50.700;5.440;2022-12-07T10:14:27;11;9;
72023;PMS5003;59889;50.700;5.440;2022-12-07T10:16:50;11;10;
72023;PMS5003;59889;50.700;5.440;2022-12-07T10:19:17;8;8;
72023;PMS5003;59889;50.700;5.440;2022-12-07T10:21:40;10;9;
72023;PMS5003;59889;50.700;5.440;2022-12-07T10:24:12;9;8;
72023;PMS5003;59889;50.700;5.440;2022-12-07T10:26:31;11;11;
72023;PMS5003;59889;50.700;5.440;2022-12-07T10:28:56;9;9;
72023;PMS5003;59889;50.700;5.440;2022-12-07T10:31:21;11;9;
72023;PMS5003;59889;50.700;5.440;2022-12-07T10:33:49;6;6;
72023;PMS5003;59889;50.700;5.440;2022-12-07T10:36:16;11;10;
72023;PMS5003;59889;50.700;5.440;2022-12-07T10:38:37;9;9;
72023;PMS5003;59889;50.700;5.440;2022-12-07T10:41:03;11;11;
72023;PMS5003;59889;50.700;5.440;2022-12-07T10:43:27;8;7;
72023;PMS5003;59889;50.700;5.440;2022-12-07T10:46:14;9;9;
72023;PMS5003;59889;50.700;5.440;2022-12-07T10:48:19;9;9;
72023;PMS5003;59889;50.700;5.440;2022-12-07T10:50:47;10;10;
72023;PMS5003;59889;50.700;5.440;2022-12-07T10:55:38;9;9;
72023;PMS5003;59889;50.700;5.440;2022-12-07T10:58:04;10;9;
72023;PMS5003;59889;50.700;5.440;2022-12-07T11:00:24;9;9;
72023;PMS5003;59889;50.700;5.440;2022-12-07T11:02:53;9;8;
72023;PMS5003;59889;50.700;5.440;2022-12-07T11:05:16;9;8;
72023;PMS5003;59889;50.700;5.440;2022-12-07T11:07:42;9;9;
72023;PMS5003;59889;50.700;5.440;2022-12-07T11:10:05;9;9;
72023;PMS5003;59889;50.700;5.440;2022-12-07T11:12:34;11;9;
72023;PMS5003;59889;50.700;5.440;2022-12-07T11:14:56;8;8;
72023;PMS5003;59889;50.700;5.440;2022-12-07T11:17:22;9;9;
72023;PMS5003;59889;50.700;5.440;2022-12-07T11:19:51;9;9;
72023;PMS5003;59889;50.700;5.440;2022-12-07T11:22:13;9;9;
72023;PMS5003;59889;50.700;5.440;2022-12-07T11:24:40;10;9;
72023;PMS5003;59889;50.700;5.440;2022-12-07T11:27:04;8;8;
72023;PMS5003;59889;50.700;5.440;2022-12-07T11:29:31;10;8;
72023;PMS5003;59889;50.700;5.440;2022-12-07T11:31:54;9;9;
72023;PMS5003;59889;50.700;5.440;2022-12-07T11:34:18;9;6;
72023;PMS5003;59889;50.700;5.440;2022-12-07T11:36:41;9;9;
72023;PMS5003;59889;50.700;5.440;2022-12-07T11:39:10;9;9;
72023;PMS5003;59889;50.700;5.440;2022-12-07T11:41:33;9;8;
72023;PMS5003;59889;50.700;5.440;2022-12-07T11:43:58;8;8;
72023;PMS5003;59889;50.700;5.440;2022-12-07T11:46:22;10;10;
72023;PMS5003;59889;50.700;5.440;2022-12-07T11:48:47;10;8;
72023;PMS5003;59889;50.700;5.440;2022-12-07T11:51:12;7;7;
72023;PMS5003;59889;50.700;5.440;2022-12-07T11:53:37;9;7;
72023;PMS5003;59889;50.700;5.440;2022-12-07T11:56:04;8;8;
72023;PMS5003;59889;50.700;5.440;2022-12-07T12:00:54;8;8;
72023;PMS5003;59889;50.700;5.440;2022-12-07T12:03:20;10;8;
72023;PMS5003;59889;50.700;5.440;2022-12-07T12:05:42;8;7;
72023;PMS5003;59889;50.700;5.440;2022-12-07T12:08:13;8;7;
72023;PMS5003;59889;50.700;5.440;2022-12-07T12:10:37;7;7;
72023;PMS5003;59889;50.700;5.440;2022-12-07T12:13:02;7;6;
72023;PMS5003;59889;50.700;5.440;2022-12-07T12:15:27;9;8;
72023;PMS5003;59889;50.700;5.440;2022-12-07T12:17:53;8;7;
72023;PMS5003;59889;50.700;5.440;2022-12-07T12:20:16;7;7;
72023;PMS5003;59889;50.700;5.440;2022-12-07T12:22:40;8;7;
72023;PMS5003;59889;50.700;5.440;2022-12-07T12:25:05;7;7;
72023;PMS5003;59889;50.700;5.440;2022-12-07T12:27:30;9;8;
72023;PMS5003;59889;50.700;5.440;2022-12-07T12:29:55;7;7;
72023;PMS5003;59889;50.700;5.440;2022-12-07T12:32:20;8;8;
72023;PMS5003;59889;50.700;5.440;2022-12-07T12:34:58;7;7;
72023;PMS5003;59889;50.700;5.440;2022-12-07T12:39:35;5;5;
72023;PMS5003;59889;50.700;5.440;2022-12-07T12:42:00;6;6;
72023;PMS5003;59889;50.700;5.440;2022-12-07T12:46:52;6;5;
72023;PMS5003;59889;50.700;5.440;2022-12-07T12:51:42;5;5;
72023;PMS5003;59889;50.700;5.440;2022-12-07T12:54:10;5;5;
72023;PMS5003;59889;50.700;5.440;2022-12-07T12:56:35;7;7;
72023;PMS5003;59889;50.700;5.440;2022-12-07T13:01:36;10;8;
72023;PMS5003;59889;50.700;5.440;2022-12-07T13:03:51;6;6;
72023;PMS5003;59889;50.700;5.440;2022-12-07T13:06:17;10;9;
72023;PMS5003;59889;50.700;5.440;2022-12-07T13:08:37;6;5;
72023;PMS5003;59889;50.700;5.440;2022-12-07T13:13:30;8;7;
72023;PMS5003;59889;50.700;5.440;2022-12-07T13:15:53;7;7;
72023;PMS5003;59889;50.700;5.440;2022-12-07T13:18:23;8;7;
72023;PMS5003;59889;50.700;5.440;2022-12-07T13:20:44;5;5;
72023;PMS5003;59889;50.700;5.440;2022-12-07T13:23:08;6;6;
72023;PMS5003;59889;50.700;5.440;2022-12-07T13:25:36;8;8;
72023;PMS5003;59889;50.700;5.440;2022-12-07T13:28:00;6;6;
72023;PMS5003;59889;50.700;5.440;2022-12-07T13:30:23;8;6;
72023;PMS5003;59889;50.700;5.440;2022-12-07T13:32:51;6;6;
72023;PMS5003;59889;50.700;5.440;2022-12-07T13:37:38;5;5;
72023;PMS5003;59889;50.700;5.440;2022-12-07T13:40:14;6;6;
72023;PMS5003;59889;50.700;5.440;2022-12-07T13:42:29;5;4;
72023;PMS5003;59889;50.700;5.440;2022-12-07T13:44:54;5;4;
72023;PMS5003;59889;50.700;5.440;2022-12-07T13:47:20;6;5;
72023;PMS5003;59889;50.700;5.440;2022-12-07T13:49:46;4;4;
72023;PMS5003;59889;50.700;5.440;2022-12-07T13:52:15;5;5;
72023;PMS5003;59889;50.700;5.440;2022-12-07T13:54:42;7;6;
72023;PMS5003;59889;50.700;5.440;2022-12-07T13:56:59;7;7;
72023;PMS5003;59889;50.700;5.440;2022-12-07T13:59:25;3;3;
72023;PMS5003;59889;50.700;5.440;2022-12-07T14:01:50;5;5;
72023;PMS5003;59889;50.700;5.440;2022-12-07T14:04:16;4;4;
72023;PMS5003;59889;50.700;5.440;2022-12-07T14:09:07;6;6;
72023;PMS5003;59889;50.700;5.440;2022-12-07T14:11:30;5;4;
72023;PMS5003;59889;50.700;5.440;2022-12-07T14:13:56;5;5;
72023;PMS5003;59889;50.700;5.440;2022-12-07T14:16:22;5;5;
72023;PMS5003;59889;50.700;5.440;2022-12-07T14:18:45;5;5;
72023;PMS5003;59889;50.700;5.440;2022-12-07T14:21:14;5;4;
72023;PMS5003;59889;50.700;5.440;2022-12-07T14:23:36;4;4;
72023;PMS5003;59889;50.700;5.440;2022-12-07T14:26:06;3;3;
72023;PMS5003;59889;50.700;5.440;2022-12-07T14:28:26;6;5;
72023;PMS5003;59889;50.700;5.440;2022-12-07T14:30:51;6;6;
72023;PMS5003;59889;50.700;5.440;2022-12-07T14:33:22;3;3;
72023;PMS5003;59889;50.700;5.440;2022-12-07T14:35:41;4;4;
72023;PMS5003;59889;50.700;5.440;2022-12-07T14:38:07;5;5;
72023;PMS5003;59889;50.700;5.440;2022-12-07T14:40:31;4;4;
72023;PMS5003;59889;50.700;5.440;2022-12-07T14:42:57;4;4;
72023;PMS5003;59889;50.700;5.440;2022-12-07T14:45:22;7;5;
72023;PMS5003;59889;50.700;5.440;2022-12-07T14:47:47;3;3;
72023;PMS5003;59889;50.700;5.440;2022-12-07T14:50:13;4;4;
72023;PMS5003;59889;50.700;5.440;2022-12-07T14:52:37;6;6;
72023;PMS5003;59889;50.700;5.440;2022-12-07T14:55:02;4;3;
72023;PMS5003;59889;50.700;5.440;2022-12-07T14:57:27;3;3;
72023;PMS5003;59889;50.700;5.440;2022-12-07T14:59:52;4;4;
72023;PMS5003;59889;50.700;5.440;2022-12-07T15:02:17;4;4;
72023;PMS5003;59889;50.700;5.440;2022-12-07T15:04:42;4;4;
72023;PMS5003;59889;50.700;5.440;2022-12-07T15:07:10;5;5;
72023;PMS5003;59889;50.700;5.440;2022-12-07T15:09:32;6;6;
72023;PMS5003;59889;50.700;5.440;2022-12-07T15:11:57;4;4;
72023;PMS5003;59889;50.700;5.440;2022-12-07T15:14:23;5;5;
72023;PMS5003;59889;50.700;5.440;2022-12-07T15:16:48;5;5;
72023;PMS5003;59889;50.700;5.440;2022-12-07T15:19:16;4;4;
72023;PMS5003;59889;50.700;5.440;2022-12-07T15:21:38;3;3;
72023;PMS5003;59889;50.700;5.440;2022-12-07T15:24:03;5;5;
72023;PMS5003;59889;50.700;5.440;2022-12-07T15:26:28;4;4;
72023;PMS5003;59889;50.700;5.440;2022-12-07T15:28:53;5;5;
72023;PMS5003;59889;50.700;5.440;2022-12-07T15:31:18;5;5;
72023;PMS5003;59889;50.700;5.440;2022-12-07T15:33:43;3;3;
72023;PMS5003;59889;50.700;5.440;2022-12-07T15:36:12;5;4;
72023;PMS5003;59889;50.700;5.440;2022-12-07T15:38:34;4;4;
72023;PMS5003;59889;50.700;5.440;2022-12-07T15:40:59;4;4;
72023;PMS5003;59889;50.700;5.440;2022-12-07T15:43:24;4;4;
72023;PMS5003;59889;50.700;5.440;2022-12-07T15:45:49;3;3;
72023;PMS5003;59889;50.700;5.440;2022-12-07T15:48:14;4;4;
72023;PMS5003;59889;50.700;5.440;2022-12-07T15:50:39;5;5;
72023;PMS5003;59889;50.700;5.440;2022-12-07T15:53:04;5;5;
72023;PMS5003;59889;50.700;5.440;2022-12-07T15:55:29;3;3;
72023;PMS5003;59889;50.700;5.440;2022-12-07T15:57:54;5;5;
72023;PMS5003;59889;50.700;5.440;2022-12-07T16:00:20;5;5;
72023;PMS5003;59889;50.700;5.440;2022-12-07T16:02:45;4;4;
72023;PMS5003;59889;50.700;5.440;2022-12-07T16:05:10;4;4;
72023;PMS5003;59889;50.700;5.440;2022-12-07T16:07:35;4;3;
72023;PMS5003;59889;50.700;5.440;2022-12-07T16:10:00;4;4;
72023;PMS5003;59889;50.700;5.440;2022-12-07T16:12:26;5;4;
72023;PMS5003;59889;50.700;5.440;2022-12-07T16:14:50;4;4;
72023;PMS5003;59889;50.700;5.440;2022-12-07T16:17:15;4;4;
72023;PMS5003;59889;50.700;5.440;2022-12-07T16:19:40;5;5;
72023;PMS5003;59889;50.700;5.440;2022-12-07T16:22:06;4;3;
72023;PMS5003;59889;50.700;5.440;2022-12-07T16:24:31;3;3;
72023;PMS5003;59889;50.700;5.440;2022-12-07T16:26:56;4;3;
72023;PMS5003;59889;50.700;5.440;2022-12-07T16:29:21;4;4;
72023;PMS5003;59889;50.700;5.440;2022-12-07T16:31:46;4;3;
72023;PMS5003;59889;50.700;5.440;2022-12-07T16:34:11;4;4;
72023;PMS5003;59889;50.700;5.440;2022-12-07T16:36:36;2;2;
72023;PMS5003;59889;50.700;5.440;2022-12-07T16:39:02;4;4;
72023;PMS5003;59889;50.700;5.440;2022-12-07T16:41:26;4;4;
72023;PMS5003;59889;50.700;5.440;2022-12-07T16:43:51;4;4;
72023;PMS5003;59889;50.700;5.440;2022-12-07T16:46:17;3;3;
72023;PMS5003;59889;50.700;5.440;2022-12-07T16:48:42;4;4;
72023;PMS5003;59889;50.700;5.440;2022-12-07T16:51:08;5;4;
72023;PMS5003;59889;50.700;5.440;2022-12-07T16:53:32;3;3;